F/V L'eden — FO4557 — position and weather

sailwx.info

Track history (hours):
 
Tides and Currents Weather Stations Pressure Air Temp Water Temp Dewpoint Dewpoint Depression Visibility Wind Speed Wind Dir Waves Ship Positions

F/V L'eden

Last reported at 2018-Jun-19 04:28 UTC. Time now 2018-Jun-19 04:35 UTC.
Position N 46°23' W 001°51'.

Length 12 m.

Type: Fishing. MMSI: 228112000.

Date/timePositionNaut miles runAvg speedWind from/ knotsBaromVisibWave heightAir tempDewpointWater temp
2018-Jun-19 04:28N 46°23' W 001°51'2 3.6
2018-Jun-19 04:00N 46°24' W 001°52'1 2.3
2018-Jun-19 03:23N 46°23' W 001°51'1 1.5
2018-Jun-19 02:59N 46°24' W 001°51'0 0.6
2018-Jun-19 02:27N 46°24' W 001°51'0 0.5
2018-Jun-19 02:00N 46°24' W 001°51'1 2.4
2018-Jun-19 01:30N 46°25' W 001°52'4 7.4
2018-Jun-19 01:00N 46°28' W 001°49'2 0.1
2018-Jun-18 06:53N 46°30' W 001°47'0 0.5
2018-Jun-18 06:30N 46°30' W 001°48'4 8.0
2018-Jun-18 06:00N 46°26' W 001°50'3 5.7
2018-Jun-18 05:30N 46°23' W 001°51'1 1.4
2018-Jun-18 05:00N 46°24' W 001°52'0 0.9
2018-Jun-18 04:30N 46°24' W 001°52'0 0.9
2018-Jun-18 04:00N 46°24' W 001°53'4 7.2
2018-Jun-18 03:30N 46°27' W 001°50'3 6.0
2018-Jun-18 03:00N 46°30' W 001°47'  
2018-Jun-14 06:51N 46°30' W 001°47'0 0.2
2018-Jun-14 06:28N 46°30' W 001°47'2 3.9
2018-Jun-14 05:59N 46°28' W 001°49'4 7.7
2018-Jun-14 05:29N 46°26' W 001°54'2 4.5
2018-Jun-14 04:57N 46°24' W 001°53'0 1.0
2018-Jun-14 04:30N 46°25' W 001°53'1 2.2
2018-Jun-14 03:51N 46°23' W 001°52'1 3.7
2018-Jun-14 03:30N 46°25' W 001°52'1 1.8
2018-Jun-14 02:59N 46°24' W 001°51'1 2.2
2018-Jun-14 02:30N 46°25' W 001°52'0 0.7
2018-Jun-14 01:59N 46°25' W 001°51'2 4.8
2018-Jun-14 01:30N 46°26' W 001°49'4 6.8
2018-Jun-14 00:58N 46°30' W 001°47'0 0.0
2018-Jun-13 08:50N 46°30' W 001°47'0 0.0
2018-Jun-13 08:29N 46°30' W 001°47'0 0.6
2018-Jun-13 08:00N 46°30' W 001°48'4 7.4
2018-Jun-13 07:30N 46°26' W 001°50'2 3.3
2018-Jun-13 07:00N 46°26' W 001°52'1 1.8
2018-Jun-13 06:30N 46°25' W 001°52'0 0.6
2018-Jun-13 06:00N 46°25' W 001°52'0 0.7
2018-Jun-13 05:30N 46°25' W 001°53'1 2.8
2018-Jun-13 04:58N 46°24' W 001°54'0 0.4
2018-Jun-13 04:29N 46°24' W 001°54'0 0.7
2018-Jun-13 03:56N 46°24' W 001°53'0 0.6
2018-Jun-13 03:26N 46°24' W 001°53'1 2.3
2018-Jun-13 02:50N 46°23' W 001°51'1 3.9
2018-Jun-13 02:30N 46°24' W 001°52'1 2.5
2018-Jun-13 01:59N 46°23' W 001°51'2 3.8
2018-Jun-13 01:30N 46°25' W 001°51'4 8.1
2018-Jun-13 01:00N 46°28' W 001°48'2 0.3
2018-Jun-12 18:49N 46°30' W 001°47'0 0.0
2018-Jun-12 18:28N 46°30' W 001°47'0 0.0
2018-Jun-12 17:59N 46°30' W 001°47'0 0.0
2018-Jun-12 10:05N 46°30' W 001°47'0 0.1
2018-Jun-12 09:59N 46°30' W 001°47'0 0.0
2018-Jun-12 09:29N 46°30' W 001°47'0 0.0
2018-Jun-12 08:59N 46°30' W 001°47'0 0.0
2018-Jun-12 08:29N 46°30' W 001°47'0 0.0
2018-Jun-12 07:59N 46°30' W 001°47'1 2.6
2018-Jun-12 07:30N 46°29' W 001°48'4 8.7
2018-Jun-12 06:59N 46°25' W 001°51'1 1.3
2018-Jun-12 06:30N 46°24' W 001°52'1 1.9
2018-Jun-12 06:00N 46°24' W 001°53'1 1.1
2018-Jun-12 05:27N 46°24' W 001°54'0 0.3
2018-Jun-12 04:52N 46°24' W 001°54'0 0.6
2018-Jun-12 04:24N 46°24' W 001°54'0 0.4
2018-Jun-12 03:57N 46°24' W 001°53'0 0.7
2018-Jun-12 03:25N 46°24' W 001°53'1 1.7
2018-Jun-12 02:43N 46°23' W 001°51'0 1.8
2018-Jun-12 02:30N 46°24' W 001°51'0 0.4
2018-Jun-12 02:00N 46°24' W 001°51'1 2.2
2018-Jun-12 01:30N 46°25' W 001°51'4 8.0
2018-Jun-12 01:00N 46°28' W 001°48'2 0.4
2018-Jun-11 20:51N 46°30' W 001°47'0 0.0
2018-Jun-11 20:30N 46°30' W 001°47'0 0.0
2018-Jun-11 09:08N 46°30' W 001°47'0 0.0
2018-Jun-11 08:59N 46°30' W 001°47'0 0.0
2018-Jun-11 08:29N 46°30' W 001°47'0 0.0
2018-Jun-11 07:59N 46°30' W 001°47'0 0.6
2018-Jun-11 07:30N 46°30' W 001°48'4 8.1
2018-Jun-11 07:00N 46°26' W 001°50'2 4.4
2018-Jun-11 06:30N 46°24' W 001°51'1 1.5
2018-Jun-11 06:00N 46°24' W 001°52'1 2.1
2018-Jun-11 05:29N 46°24' W 001°53'1 1.2
2018-Jun-11 05:00N 46°24' W 001°54'2 3.6
2018-Jun-11 04:30N 46°23' W 001°52'1 2.2
2018-Jun-11 03:59N 46°24' W 001°52'2 3.3
2018-Jun-11 03:30N 46°23' W 001°51'2 3.2
2018-Jun-11 03:00N 46°24' W 001°52'1 2.4
2018-Jun-11 02:30N 46°23' W 001°51'0 0.4
2018-Jun-11 02:00N 46°24' W 001°51'1 1.9
2018-Jun-11 01:30N 46°25' W 001°51'4 8.8
2018-Jun-11 01:00N 46°28' W 001°48'1 0.1
2018-Jun-10 07:40N 46°30' W 001°47'0 0.4
2018-Jun-10 07:30N 46°30' W 001°47'4 7.7
2018-Jun-10 07:00N 46°26' W 001°50'3 5.7
2018-Jun-10 06:30N 46°24' W 001°51'1 1.7
2018-Jun-10 06:00N 46°24' W 001°52'0 1.0
2018-Jun-10 05:30N 46°25' W 001°52'0 0.6
2018-Jun-10 05:00N 46°24' W 001°53'2 3.0
2018-Jun-10 04:26N 46°23' W 001°52'2 4.1
2018-Jun-10 04:00N 46°24' W 001°52'1 2.7
2018-Jun-10 03:30N 46°23' W 001°51'1 1.7
2018-Jun-10 03:00N 46°24' W 001°52'1 1.6
2018-Jun-10 02:30N 46°23' W 001°51'0 0.3
2018-Jun-10 01:57N 46°24' W 001°51'1 1.3
2018-Jun-10 01:30N 46°24' W 001°51'4 8.6
2018-Jun-10 01:00N 46°28' W 001°48'2 0.1
2018-Jun-09 08:11N 46°30' W 001°47'0 0.7
2018-Jun-09 08:00N 46°30' W 001°47'3 6.9
2018-Jun-09 07:30N 46°27' W 001°49'3 6.5
2018-Jun-09 06:59N 46°24' W 001°51'0 0.9
2018-Jun-09 06:30N 46°24' W 001°51'0 0.6
2018-Jun-09 06:00N 46°24' W 001°52'0 0.6
2018-Jun-09 05:30N 46°24' W 001°52'0 0.4
2018-Jun-09 04:57N 46°23' W 001°52'0 0.9
2018-Jun-09 04:30N 46°23' W 001°52'  
Track history (hours):
 
Tides and Currents Weather Stations Pressure Air Temp Water Temp Dewpoint Dewpoint Depression Visibility Wind Speed Wind Dir Waves Ship Positions

F/V L'eden

Last reported at 2018-Jun-19 04:28 UTC. Time now 2018-Jun-19 04:35 UTC.
Position N 46°23' W 001°51'.

Length 12 m.

Type: Fishing. MMSI: 228112000.

Date/timePositionNaut miles runAvg speedWind from/ knotsBaromVisibWave heightAir tempDewpointWater temp
2018-Jun-19 04:28N 46°23' W 001°51'2 3.6
2018-Jun-19 04:00N 46°24' W 001°52'1 2.3
2018-Jun-19 03:23N 46°23' W 001°51'1 1.5
2018-Jun-19 02:59N 46°24' W 001°51'0 0.6
2018-Jun-19 02:27N 46°24' W 001°51'0 0.5
2018-Jun-19 02:00N 46°24' W 001°51'1 2.4
2018-Jun-19 01:30N 46°25' W 001°52'4 7.4
2018-Jun-19 01:00N 46°28' W 001°49'2 0.1
2018-Jun-18 06:53N 46°30' W 001°47'0 0.5
2018-Jun-18 06:30N 46°30' W 001°48'4 8.0
2018-Jun-18 06:00N 46°26' W 001°50'3 5.7
2018-Jun-18 05:30N 46°23' W 001°51'1 1.4
2018-Jun-18 05:00N 46°24' W 001°52'0 0.9
2018-Jun-18 04:30N 46°24' W 001°52'0 0.9
2018-Jun-18 04:00N 46°24' W 001°53'4 7.2
2018-Jun-18 03:30N 46°27' W 001°50'3 6.0
2018-Jun-18 03:00N 46°30' W 001°47'  
2018-Jun-14 06:51N 46°30' W 001°47'0 0.2
2018-Jun-14 06:28N 46°30' W 001°47'2 3.9
2018-Jun-14 05:59N 46°28' W 001°49'4 7.7
2018-Jun-14 05:29N 46°26' W 001°54'2 4.5
2018-Jun-14 04:57N 46°24' W 001°53'0 1.0
2018-Jun-14 04:30N 46°25' W 001°53'1 2.2
2018-Jun-14 03:51N 46°23' W 001°52'1 3.7
2018-Jun-14 03:30N 46°25' W 001°52'1 1.8
2018-Jun-14 02:59N 46°24' W 001°51'1 2.2
2018-Jun-14 02:30N 46°25' W 001°52'0 0.7
2018-Jun-14 01:59N 46°25' W 001°51'2 4.8
2018-Jun-14 01:30N 46°26' W 001°49'4 6.8
2018-Jun-14 00:58N 46°30' W 001°47'0 0.0
2018-Jun-13 08:50N 46°30' W 001°47'0 0.0
2018-Jun-13 08:29N 46°30' W 001°47'0 0.6
2018-Jun-13 08:00N 46°30' W 001°48'4 7.4
2018-Jun-13 07:30N 46°26' W 001°50'2 3.3
2018-Jun-13 07:00N 46°26' W 001°52'1 1.8
2018-Jun-13 06:30N 46°25' W 001°52'0 0.6
2018-Jun-13 06:00N 46°25' W 001°52'0 0.7
2018-Jun-13 05:30N 46°25' W 001°53'1 2.8
2018-Jun-13 04:58N 46°24' W 001°54'0 0.4
2018-Jun-13 04:29N 46°24' W 001°54'0 0.7
2018-Jun-13 03:56N 46°24' W 001°53'0 0.6
2018-Jun-13 03:26N 46°24' W 001°53'1 2.3
2018-Jun-13 02:50N 46°23' W 001°51'1 3.9
2018-Jun-13 02:30N 46°24' W 001°52'1 2.5
2018-Jun-13 01:59N 46°23' W 001°51'2 3.8
2018-Jun-13 01:30N 46°25' W 001°51'4 8.1
2018-Jun-13 01:00N 46°28' W 001°48'2 0.3
2018-Jun-12 18:49N 46°30' W 001°47'0 0.0
2018-Jun-12 18:28N 46°30' W 001°47'0 0.0
2018-Jun-12 17:59N 46°30' W 001°47'0 0.0
2018-Jun-12 10:05N 46°30' W 001°47'0 0.1
2018-Jun-12 09:59N 46°30' W 001°47'0 0.0
2018-Jun-12 09:29N 46°30' W 001°47'0 0.0
2018-Jun-12 08:59N 46°30' W 001°47'0 0.0
2018-Jun-12 08:29N 46°30' W 001°47'0 0.0
2018-Jun-12 07:59N 46°30' W 001°47'1 2.6
2018-Jun-12 07:30N 46°29' W 001°48'4 8.7
2018-Jun-12 06:59N 46°25' W 001°51'1 1.3
2018-Jun-12 06:30N 46°24' W 001°52'1 1.9
2018-Jun-12 06:00N 46°24' W 001°53'1 1.1
2018-Jun-12 05:27N 46°24' W 001°54'0 0.3
2018-Jun-12 04:52N 46°24' W 001°54'0 0.6
2018-Jun-12 04:24N 46°24' W 001°54'0 0.4
2018-Jun-12 03:57N 46°24' W 001°53'0 0.7
2018-Jun-12 03:25N 46°24' W 001°53'1 1.7
2018-Jun-12 02:43N 46°23' W 001°51'0 1.8
2018-Jun-12 02:30N 46°24' W 001°51'0 0.4
2018-Jun-12 02:00N 46°24' W 001°51'1 2.2
2018-Jun-12 01:30N 46°25' W 001°51'4 8.0
2018-Jun-12 01:00N 46°28' W 001°48'2 0.4
2018-Jun-11 20:51N 46°30' W 001°47'0 0.0
2018-Jun-11 20:30N 46°30' W 001°47'0 0.0
2018-Jun-11 09:08N 46°30' W 001°47'0 0.0
2018-Jun-11 08:59N 46°30' W 001°47'0 0.0
2018-Jun-11 08:29N 46°30' W 001°47'0 0.0
2018-Jun-11 07:59N 46°30' W 001°47'0 0.6
2018-Jun-11 07:30N 46°30' W 001°48'4 8.1
2018-Jun-11 07:00N 46°26' W 001°50'2 4.4
2018-Jun-11 06:30N 46°24' W 001°51'1 1.5
2018-Jun-11 06:00N 46°24' W 001°52'1 2.1
2018-Jun-11 05:29N 46°24' W 001°53'1 1.2
2018-Jun-11 05:00N 46°24' W 001°54'2 3.6
2018-Jun-11 04:30N 46°23' W 001°52'1 2.2
2018-Jun-11 03:59N 46°24' W 001°52'2 3.3
2018-Jun-11 03:30N 46°23' W 001°51'2 3.2
2018-Jun-11 03:00N 46°24' W 001°52'1 2.4
2018-Jun-11 02:30N 46°23' W 001°51'0 0.4
2018-Jun-11 02:00N 46°24' W 001°51'1 1.9
2018-Jun-11 01:30N 46°25' W 001°51'4 8.8
2018-Jun-11 01:00N 46°28' W 001°48'1 0.1
2018-Jun-10 07:40N 46°30' W 001°47'0 0.4
2018-Jun-10 07:30N 46°30' W 001°47'4 7.7
2018-Jun-10 07:00N 46°26' W 001°50'3 5.7
2018-Jun-10 06:30N 46°24' W 001°51'1 1.7
2018-Jun-10 06:00N 46°24' W 001°52'0 1.0
2018-Jun-10 05:30N 46°25' W 001°52'0 0.6
2018-Jun-10 05:00N 46°24' W 001°53'2 3.0
2018-Jun-10 04:26N 46°23' W 001°52'2 4.1
2018-Jun-10 04:00N 46°24' W 001°52'1 2.7
2018-Jun-10 03:30N 46°23' W 001°51'1 1.7
2018-Jun-10 03:00N 46°24' W 001°52'1 1.6
2018-Jun-10 02:30N 46°23' W 001°51'0 0.3
2018-Jun-10 01:57N 46°24' W 001°51'1 1.3
2018-Jun-10 01:30N 46°24' W 001°51'4 8.6
2018-Jun-10 01:00N 46°28' W 001°48'2 0.1
2018-Jun-09 08:11N 46°30' W 001°47'0 0.7
2018-Jun-09 08:00N 46°30' W 001°47'3 6.9
2018-Jun-09 07:30N 46°27' W 001°49'3 6.5
2018-Jun-09 06:59N 46°24' W 001°51'0 0.9
2018-Jun-09 06:30N 46°24' W 001°51'0 0.6
2018-Jun-09 06:00N 46°24' W 001°52'0 0.6
2018-Jun-09 05:30N 46°24' W 001°52'0 0.4
2018-Jun-09 04:57N 46°23' W 001°52'0 0.9
2018-Jun-09 04:30N 46°23' W 001°52'  

Dump ship's entire track history